Shawn Miller — WDD2268 — position and weather

sailwx.info

Track history (hours):
 
Tides and Currents Weather Stations Pressure Air Temp Water Temp Dewpoint Dewpoint Depression Visibility Wind Speed Wind Dir Waves Ship Positions

Shawn Miller

Owner: Miller's Tug & Barge, Staten Island, NY. More information available from US FCC via Universal Licensing System and Coast Guard Vessel Documentation Center.

Last reported at 2018-Jan-23 21:13 UTC. Time now 2018-Jan-24 09:15 UTC.
Position N 40°38' W 074°04'.

Length 7 m; draft 2 m.

Type: Towing. MMSI: 367113120.

Date/timePositionNaut miles runAvg speedWind from/ knotsBaromVisibWave heightAir tempDewpointWater temp
2018-Jan-23 21:13N 40°38' W 074°04'0 0.6
2018-Jan-23 21:00N 40°38' W 074°04'0 0.0
2018-Jan-23 20:29N 40°38' W 074°04'3 5.9
2018-Jan-23 20:00N 40°41' W 074°03'1 1.6
2018-Jan-23 19:30N 40°42' W 074°03'0 0.0
2018-Jan-23 19:00N 40°42' W 074°03'0 0.0
2018-Jan-23 18:30N 40°42' W 074°03'0 0.9
2018-Jan-23 18:00N 40°42' W 074°02'0 0.2
2018-Jan-23 17:30N 40°42' W 074°02'2 3.5
2018-Jan-23 17:00N 40°40' W 074°03'2 4.1
2018-Jan-23 16:29N 40°38' W 074°04'0 0.1
2018-Jan-23 16:00N 40°38' W 074°04'0 0.1
2018-Jan-23 15:30N 40°38' W 074°04'0 0.0
2018-Jan-23 14:59N 40°38' W 074°04'0 0.0
2018-Jan-23 14:30N 40°38' W 074°04'0 0.0
2018-Jan-23 14:00N 40°38' W 074°04'0 0.0
2018-Jan-23 13:29N 40°38' W 074°04'0 0.0
2018-Jan-23 12:58N 40°38' W 074°04'0 0.0
2018-Jan-23 12:30N 40°38' W 074°04'0 0.0
2018-Jan-23 11:59N 40°38' W 074°04'0 0.1
2018-Jan-23 11:30N 40°38' W 074°04'0 0.0
2018-Jan-22 20:29N 40°38' W 074°04'0 0.4
2018-Jan-22 19:59N 40°38' W 074°04'3 5.3
2018-Jan-22 19:31N 40°40' W 074°02'2 3.8
2018-Jan-22 19:01N 40°42' W 074°01'0 0.9
2018-Jan-22 18:30N 40°42' W 074°01'0 0.9
2018-Jan-22 18:00N 40°42' W 074°01'0 0.9
2018-Jan-22 17:30N 40°42' W 074°01'0 0.9
2018-Jan-22 17:01N 40°42' W 074°01'0 0.9
2018-Jan-22 16:31N 40°42' W 074°01'0 0.9
2018-Jan-22 16:01N 40°42' W 074°01'0 0.9
2018-Jan-22 15:30N 40°42' W 074°01'0 0.9
2018-Jan-22 15:00N 40°42' W 074°01'0 0.0
2018-Jan-22 14:30N 40°42' W 074°01'0 0.0
2018-Jan-22 14:00N 40°42' W 074°01'0 0.0
2018-Jan-22 13:30N 40°42' W 074°01'0 0.0
2018-Jan-22 13:00N 40°42' W 074°01'0 0.0
2018-Jan-22 12:30N 40°42' W 074°01'1 1.5
2018-Jan-22 12:01N 40°41' W 074°02'3 5.5
2018-Jan-22 11:31N 40°39' W 074°03'  
2018-Jan-19 20:53N 40°38' W 074°04'0 0.0
2018-Jan-19 20:30N 40°38' W 074°04'0 0.0
2018-Jan-19 20:00N 40°38' W 074°04'0 0.0
2018-Jan-19 19:31N 40°38' W 074°04'1 2.0
2018-Jan-19 19:00N 40°39' W 074°05'4 7.3
2018-Jan-19 18:30N 40°39' W 074°10'0 0.8
2018-Jan-19 18:00N 40°39' W 074°10'2 3.6
2018-Jan-19 17:30N 40°39' W 074°07'2 3.2
2018-Jan-19 16:58N 40°39' W 074°05'2 4.0
2018-Jan-19 16:31N 40°40' W 074°03'2 4.7
2018-Jan-19 16:01N 40°41' W 074°01'1 1.6
2018-Jan-19 15:30N 40°42' W 073°60'1 1.9
2018-Jan-19 14:59N 40°42' W 074°01'1 2.4
2018-Jan-19 14:31N 40°42' W 074°03'0 0.0
2018-Jan-19 13:59N 40°42' W 074°03'0 0.0
2018-Jan-19 13:31N 40°42' W 074°03'0 0.9
2018-Jan-19 13:00N 40°42' W 074°02'2 4.5
2018-Jan-19 12:29N 40°39' W 074°04'1 3.0
2018-Jan-19 12:01N 40°38' W 074°04'0 0.3
2018-Jan-19 11:29N 40°38' W 074°04'0 0.0
2018-Jan-18 20:58N 40°38' W 074°04'3 5.8
2018-Jan-18 20:30N 40°40' W 074°02'2 3.6
2018-Jan-18 20:00N 40°42' W 074°01'0 0.9
2018-Jan-18 19:30N 40°42' W 074°01'0 0.9
2018-Jan-18 19:00N 40°42' W 074°01'0 1.0
2018-Jan-18 18:31N 40°42' W 074°01'0 0.9
2018-Jan-18 18:01N 40°42' W 074°01'0 0.9
2018-Jan-18 17:30N 40°42' W 074°01'0 0.0
2018-Jan-18 17:01N 40°42' W 074°01'0 0.9
2018-Jan-18 16:30N 40°42' W 074°01'0 0.0
2018-Jan-18 16:00N 40°42' W 074°01'0 0.9
2018-Jan-18 15:30N 40°42' W 074°01'0 1.0
2018-Jan-18 15:00N 40°42' W 074°01'0 0.0
2018-Jan-18 14:30N 40°42' W 074°01'0 0.0
2018-Jan-18 14:01N 40°42' W 074°01'0 0.0
2018-Jan-18 13:30N 40°42' W 074°01'0 0.0
2018-Jan-18 13:01N 40°42' W 074°01'0 0.0
2018-Jan-18 12:30N 40°42' W 074°01'0 0.7
2018-Jan-18 12:01N 40°42' W 074°00'3 5.8
2018-Jan-18 11:29N 40°39' W 074°03'  
Track history (hours):
 
Tides and Currents Weather Stations Pressure Air Temp Water Temp Dewpoint Dewpoint Depression Visibility Wind Speed Wind Dir Waves Ship Positions

Shawn Miller

Owner: Miller's Tug & Barge, Staten Island, NY. More information available from US FCC via Universal Licensing System and Coast Guard Vessel Documentation Center.

Last reported at 2018-Jan-23 21:13 UTC. Time now 2018-Jan-24 09:15 UTC.
Position N 40°38' W 074°04'.

Length 7 m; draft 2 m.

Type: Towing. MMSI: 367113120.

Date/timePositionNaut miles runAvg speedWind from/ knotsBaromVisibWave heightAir tempDewpointWater temp
2018-Jan-23 21:13N 40°38' W 074°04'0 0.6
2018-Jan-23 21:00N 40°38' W 074°04'0 0.0
2018-Jan-23 20:29N 40°38' W 074°04'3 5.9
2018-Jan-23 20:00N 40°41' W 074°03'1 1.6
2018-Jan-23 19:30N 40°42' W 074°03'0 0.0
2018-Jan-23 19:00N 40°42' W 074°03'0 0.0
2018-Jan-23 18:30N 40°42' W 074°03'0 0.9
2018-Jan-23 18:00N 40°42' W 074°02'0 0.2
2018-Jan-23 17:30N 40°42' W 074°02'2 3.5
2018-Jan-23 17:00N 40°40' W 074°03'2 4.1
2018-Jan-23 16:29N 40°38' W 074°04'0 0.1
2018-Jan-23 16:00N 40°38' W 074°04'0 0.1
2018-Jan-23 15:30N 40°38' W 074°04'0 0.0
2018-Jan-23 14:59N 40°38' W 074°04'0 0.0
2018-Jan-23 14:30N 40°38' W 074°04'0 0.0
2018-Jan-23 14:00N 40°38' W 074°04'0 0.0
2018-Jan-23 13:29N 40°38' W 074°04'0 0.0
2018-Jan-23 12:58N 40°38' W 074°04'0 0.0
2018-Jan-23 12:30N 40°38' W 074°04'0 0.0
2018-Jan-23 11:59N 40°38' W 074°04'0 0.1
2018-Jan-23 11:30N 40°38' W 074°04'0 0.0
2018-Jan-22 20:29N 40°38' W 074°04'0 0.4
2018-Jan-22 19:59N 40°38' W 074°04'3 5.3
2018-Jan-22 19:31N 40°40' W 074°02'2 3.8
2018-Jan-22 19:01N 40°42' W 074°01'0 0.9
2018-Jan-22 18:30N 40°42' W 074°01'0 0.9
2018-Jan-22 18:00N 40°42' W 074°01'0 0.9
2018-Jan-22 17:30N 40°42' W 074°01'0 0.9
2018-Jan-22 17:01N 40°42' W 074°01'0 0.9
2018-Jan-22 16:31N 40°42' W 074°01'0 0.9
2018-Jan-22 16:01N 40°42' W 074°01'0 0.9
2018-Jan-22 15:30N 40°42' W 074°01'0 0.9
2018-Jan-22 15:00N 40°42' W 074°01'0 0.0
2018-Jan-22 14:30N 40°42' W 074°01'0 0.0
2018-Jan-22 14:00N 40°42' W 074°01'0 0.0
2018-Jan-22 13:30N 40°42' W 074°01'0 0.0
2018-Jan-22 13:00N 40°42' W 074°01'0 0.0
2018-Jan-22 12:30N 40°42' W 074°01'1 1.5
2018-Jan-22 12:01N 40°41' W 074°02'3 5.5
2018-Jan-22 11:31N 40°39' W 074°03'  
2018-Jan-19 20:53N 40°38' W 074°04'0 0.0
2018-Jan-19 20:30N 40°38' W 074°04'0 0.0
2018-Jan-19 20:00N 40°38' W 074°04'0 0.0
2018-Jan-19 19:31N 40°38' W 074°04'1 2.0
2018-Jan-19 19:00N 40°39' W 074°05'4 7.3
2018-Jan-19 18:30N 40°39' W 074°10'0 0.8
2018-Jan-19 18:00N 40°39' W 074°10'2 3.6
2018-Jan-19 17:30N 40°39' W 074°07'2 3.2
2018-Jan-19 16:58N 40°39' W 074°05'2 4.0
2018-Jan-19 16:31N 40°40' W 074°03'2 4.7
2018-Jan-19 16:01N 40°41' W 074°01'1 1.6
2018-Jan-19 15:30N 40°42' W 073°60'1 1.9
2018-Jan-19 14:59N 40°42' W 074°01'1 2.4
2018-Jan-19 14:31N 40°42' W 074°03'0 0.0
2018-Jan-19 13:59N 40°42' W 074°03'0 0.0
2018-Jan-19 13:31N 40°42' W 074°03'0 0.9
2018-Jan-19 13:00N 40°42' W 074°02'2 4.5
2018-Jan-19 12:29N 40°39' W 074°04'1 3.0
2018-Jan-19 12:01N 40°38' W 074°04'0 0.3
2018-Jan-19 11:29N 40°38' W 074°04'0 0.0
2018-Jan-18 20:58N 40°38' W 074°04'3 5.8
2018-Jan-18 20:30N 40°40' W 074°02'2 3.6
2018-Jan-18 20:00N 40°42' W 074°01'0 0.9
2018-Jan-18 19:30N 40°42' W 074°01'0 0.9
2018-Jan-18 19:00N 40°42' W 074°01'0 1.0
2018-Jan-18 18:31N 40°42' W 074°01'0 0.9
2018-Jan-18 18:01N 40°42' W 074°01'0 0.9
2018-Jan-18 17:30N 40°42' W 074°01'0 0.0
2018-Jan-18 17:01N 40°42' W 074°01'0 0.9
2018-Jan-18 16:30N 40°42' W 074°01'0 0.0
2018-Jan-18 16:00N 40°42' W 074°01'0 0.9
2018-Jan-18 15:30N 40°42' W 074°01'0 1.0
2018-Jan-18 15:00N 40°42' W 074°01'0 0.0
2018-Jan-18 14:30N 40°42' W 074°01'0 0.0
2018-Jan-18 14:01N 40°42' W 074°01'0 0.0
2018-Jan-18 13:30N 40°42' W 074°01'0 0.0
2018-Jan-18 13:01N 40°42' W 074°01'0 0.0
2018-Jan-18 12:30N 40°42' W 074°01'0 0.7
2018-Jan-18 12:01N 40°42' W 074°00'3 5.8
2018-Jan-18 11:29N 40°39' W 074°03'  

Dump ship's entire track history